Bridgeport, West Virginia
Current Conditions -  °F | °C
As of 4:26 AM on Thursday 27 Nov 2014 (Local Time) from KCKB Reporting Station
Haze Haze  
Wind Chill: 33°   Ceiling: 500
Heat Index: 33°   Visibility: 3mi
Dew Point: 32°   Wind: 0mph
Humidity: 96%   Direction: NA
Pressure: 29.99"   Gusts: NA
Location:  39.29°N, 80.25°W
Report Text: KCKB 270926Z AUTO 00000KT 3SM BR OVC005 01/00 A2999 RMK AO2 T00060000
Loading
Personal Weather Stations






























Interactive Weather Map New forecast layout! Learn more

10-Day Weather Forecast

Advertisements
Track Severe Weather on mobile